Time;durP1;ratioP1;P1;durP2;ratioP2;P2;SDS_P1;SDS_P2;PMS_P1;PMS_P2;Temp;Humidity;BMP_temperature;BMP_pressure;BME280_temperature;BME280_humidity;BME280_pressure;Samples;Min_cycle;Max_cycle;Signal;HPM_P1;HPM_P2
2021/12/21 00:00:24;;;;;;;12.85;7.43;;;;;;;;;;5065090;28;20041;-55
2021/12/21 00:02:51;;;;;;;15.18;8.40;;;;;;;;;;5065814;28;20025;-55
2021/12/21 00:05:24;;;;;;;14.15;8.00;;;;;;;;;;5065004;28;20426;-56
2021/12/21 00:07:51;;;;;;;12.18;7.68;;;;;;;;;;5066101;28;20107;-55
2021/12/21 00:10:19;;;;;;;12.02;7.35;;;;;;;;;;5060332;28;20094;-56
2021/12/21 00:13:04;;;;;;;13.15;7.35;;;;;;;;;;5064712;28;20593;-55
2021/12/21 00:15:47;;;;;;;12.90;7.70;;;;;;;;;;5065159;28;20021;-55
2021/12/21 00:20:54;;;;;;;11.85;6.72;;;;;;;;;;5062673;28;20032;-52
2021/12/21 00:23:32;;;;;;;11.57;7.18;;;;;;;;;;5065546;28;20013;-54
2021/12/21 00:25:59;;;;;;;10.27;6.53;;;;;;;;;;5065250;28;20028;-54
2021/12/21 00:28:31;;;;;;;11.23;6.57;;;;;;;;;;5062889;28;22011;-53
2021/12/21 00:30:57;;;;;;;10.45;6.22;;;;;;;;;;5062151;28;20537;-55
2021/12/21 00:33:23;;;;;;;10.48;6.28;;;;;;;;;;5065323;28;20100;-54
2021/12/21 00:35:49;;;;;;;9.68;5.93;;;;;;;;;;5064954;28;20028;-55
2021/12/21 00:38:15;;;;;;;8.85;5.80;;;;;;;;;;5064520;28;20039;-56
2021/12/21 00:40:41;;;;;;;10.48;6.22;;;;;;;;;;5062960;28;20028;-54
2021/12/21 00:43:07;;;;;;;13.98;7.65;;;;;;;;;;5064881;28;20036;-53
2021/12/21 00:45:34;;;;;;;12.68;7.18;;;;;;;;;;5064617;28;20036;-55
2021/12/21 00:48:01;;;;;;;11.52;7.15;;;;;;;;;;5064482;28;20092;-54
2021/12/21 00:50:29;;;;;;;11.02;6.75;;;;;;;;;;5063684;28;20052;-55
2021/12/21 00:52:55;;;;;;;12.77;7.43;;;;;;;;;;5063115;28;20027;-56
2021/12/21 00:55:22;;;;;;;12.35;7.00;;;;;;;;;;5064938;28;20059;-54
2021/12/21 00:57:48;;;;;;;12.23;7.20;;;;;;;;;;5064627;28;20028;-56
2021/12/21 01:00:16;;;;;;;13.00;6.75;;;;;;;;;;5063982;28;20028;-55
2021/12/21 01:02:42;;;;;;;11.13;7.15;;;;;;;;;;5061360;28;20447;-55
2021/12/21 01:05:17;;;;;;;12.88;7.57;;;;;;;;;;5064452;28;20059;-55
2021/12/21 01:07:47;;;;;;;12.75;7.57;;;;;;;;;;5064425;28;20032;-56
2021/12/21 01:12:57;;;;;;;9.90;6.40;;;;;;;;;;5058430;28;20029;-55
2021/12/21 01:18:24;;;;;;;10.95;6.93;;;;;;;;;;4989281;28;20077;-53
2021/12/21 01:21:06;;;;;;;12.23;7.18;;;;;;;;;;5045695;28;20411;-54
2021/12/21 01:26:30;;;;;;;13.35;7.70;;;;;;;;;;5064218;28;20133;-54
2021/12/21 01:31:42;;;;;;;14.23;8.20;;;;;;;;;;5060733;28;20447;-54
2021/12/21 01:37:06;;;;;;;14.57;8.38;;;;;;;;;;5044078;28;20459;-53
2021/12/21 01:50:09;;;;;;;;;;;;;;;;;;5064445;28;20035;-54
2021/12/21 01:52:35;;;;;;;14.10;8.20;;;;;;;;;;5061272;28;20006;-55
2021/12/21 01:55:01;;;;;;;17.70;8.98;;;;;;;;;;5064090;28;20051;-55
2021/12/21 01:57:27;;;;;;;13.98;8.10;;;;;;;;;;5063885;28;20415;-55
2021/12/21 01:59:53;;;;;;;13.48;7.90;;;;;;;;;;5064117;28;20081;-54
2021/12/21 02:02:20;;;;;;;12.95;7.68;;;;;;;;;;5059341;28;20453;-54
2021/12/21 02:04:47;;;;;;;13.52;8.38;;;;;;;;;;5062213;28;20032;-55
2021/12/21 02:07:13;;;;;;;14.23;8.75;;;;;;;;;;5063766;28;20111;-55
2021/12/21 02:09:39;;;;;;;17.33;9.23;;;;;;;;;;5064336;28;20126;-54
2021/12/21 02:12:10;;;;;;;29.98;13.98;;;;;;;;;;5067642;28;20021;-54
2021/12/21 02:14:36;;;;;;;37.63;18.10;;;;;;;;;;5067808;28;20037;-55
2021/12/21 02:19:58;;;;;;;37.40;17.98;;;;;;;;;;5066592;28;20207;-54
2021/12/21 02:22:29;;;;;;;36.88;17.65;;;;;;;;;;5066125;28;20502;-55
2021/12/21 02:25:30;;;;;;;36.30;16.63;;;;;;;;;;5067655;28;20083;-54
2021/12/21 02:30:37;;;;;;;33.55;16.73;;;;;;;;;;5067172;28;20399;-53
2021/12/21 02:33:03;;;;;;;35.40;16.95;;;;;;;;;;5066803;28;20016;-53
2021/12/21 02:35:30;;;;;;;31.38;15.57;;;;;;;;;;5066652;28;20122;-55
2021/12/21 02:37:56;;;;;;;32.30;16.52;;;;;;;;;;5065387;28;20259;-55
2021/12/21 02:40:23;;;;;;;29.27;14.23;;;;;;;;;;5066887;28;20044;-54
2021/12/21 02:42:49;;;;;;;28.85;14.30;;;;;;;;;;5066267;28;20032;-55
2021/12/21 02:45:16;;;;;;;30.33;15.60;;;;;;;;;;5067020;28;20090;-55
2021/12/21 02:47:42;;;;;;;26.08;13.75;;;;;;;;;;5066596;28;20411;-54
2021/12/21 02:50:09;;;;;;;25.98;12.75;;;;;;;;;;5065649;28;20032;-55
2021/12/21 02:52:35;;;;;;;24.92;12.52;;;;;;;;;;5067223;28;20035;-54
2021/12/21 02:55:04;;;;;;;22.48;12.02;;;;;;;;;;5067489;28;20100;-56
2021/12/21 02:57:30;;;;;;;19.42;10.85;;;;;;;;;;5066328;28;20067;-52
2021/12/21 02:59:57;;;;;;;19.02;10.52;;;;;;;;;;5065248;28;20348;-54
2021/12/21 03:02:25;;;;;;;18.40;10.18;;;;;;;;;;5066871;28;20089;-54
2021/12/21 03:04:52;;;;;;;17.70;10.23;;;;;;;;;;5066225;28;20036;-54
2021/12/21 03:09:56;;;;;;;17.42;10.07;;;;;;;;;;5063686;28;20045;-56
2021/12/21 03:14:48;;;;;;;18.67;10.88;;;;;;;;;;5066742;28;20036;-55
2021/12/21 03:17:14;;;;;;;18.77;10.73;;;;;;;;;;5066319;28;20051;-54
2021/12/21 03:19:41;;;;;;;18.20;10.20;;;;;;;;;;5065027;28;20414;-54
2021/12/21 03:22:09;;;;;;;18.52;10.73;;;;;;;;;;5065967;28;20067;-54
2021/12/21 03:24:35;;;;;;;18.17;10.48;;;;;;;;;;5066074;28;20430;-54
2021/12/21 03:27:03;;;;;;;17.25;9.90;;;;;;;;;;5066371;28;20028;-51
2021/12/21 03:29:30;;;;;;;16.80;10.05;;;;;;;;;;5064654;28;20032;-55
2021/12/21 03:31:57;;;;;;;17.02;9.73;;;;;;;;;;5066050;28;20032;-54
2021/12/21 03:34:23;;;;;;;14.88;9.18;;;;;;;;;;5065537;28;20488;-55
2021/12/21 03:36:50;;;;;;;18.10;9.93;;;;;;;;;;5064865;28;20103;-54
2021/12/21 03:39:19;;;;;;;16.58;9.50;;;;;;;;;;5064948;28;20490;-54
2021/12/21 03:41:48;;;;;;;15.25;8.80;;;;;;;;;;5066715;28;20024;-52
2021/12/21 03:44:15;;;;;;;13.60;8.55;;;;;;;;;;5065661;28;20021;-54
2021/12/21 03:46:46;;;;;;;14.57;8.40;;;;;;;;;;5065877;28;20021;-55
2021/12/21 03:51:51;;;;;;;16.08;8.80;;;;;;;;;;5066153;28;20021;-53
2021/12/21 03:54:17;;;;;;;15.45;8.50;;;;;;;;;;5066093;28;20075;-55
2021/12/21 03:56:47;;;;;;;16.73;9.00;;;;;;;;;;5063958;28;20438;-51
2021/12/21 03:59:14;;;;;;;15.10;8.98;;;;;;;;;;5064070;28;20063;-55
2021/12/21 04:01:40;;;;;;;13.77;8.30;;;;;;;;;;5065740;28;20099;-55
2021/12/21 04:04:08;;;;;;;14.48;8.85;;;;;;;;;;5065221;28;20020;-54
2021/12/21 04:06:34;;;;;;;16.55;8.50;;;;;;;;;;5064219;28;20504;-54
2021/12/21 04:09:01;;;;;;;17.02;9.45;;;;;;;;;;5064234;28;20029;-54
2021/12/21 04:11:28;;;;;;;16.23;8.40;;;;;;;;;;5065591;28;20043;-51
2021/12/21 04:13:54;;;;;;;16.75;9.27;;;;;;;;;;5065456;28;20027;-55
2021/12/21 04:16:20;;;;;;;17.95;10.60;;;;;;;;;;5063447;28;20023;-54
2021/12/21 04:18:46;;;;;;;16.25;10.15;;;;;;;;;;5065889;28;20033;-54
2021/12/21 04:21:13;;;;;;;18.95;10.73;;;;;;;;;;5063635;28;20081;-54
2021/12/21 04:23:40;;;;;;;19.23;10.32;;;;;;;;;;5065207;28;20671;-55
2021/12/21 04:26:07;;;;;;;14.65;8.95;;;;;;;;;;5063915;28;20055;-54
2021/12/21 04:28:34;;;;;;;17.23;10.50;;;;;;;;;;5061431;28;20029;-55
2021/12/21 04:31:00;;;;;;;14.88;8.93;;;;;;;;;;5064605;28;20488;-51
2021/12/21 04:33:26;;;;;;;15.45;9.77;;;;;;;;;;5063909;28;20484;-52
2021/12/21 04:35:52;;;;;;;15.90;9.10;;;;;;;;;;5064704;28;20025;-52
2021/12/21 04:38:23;;;;;;;16.08;8.85;;;;;;;;;;5061599;28;20028;-52
2021/12/21 04:41:01;;;;;;;16.80;9.05;;;;;;;;;;5065040;28;20388;-55
2021/12/21 04:43:27;;;;;;;14.52;8.95;;;;;;;;;;5064500;28;20487;-53
2021/12/21 04:45:53;;;;;;;20.08;10.23;;;;;;;;;;5065118;28;20029;-55
2021/12/21 04:48:20;;;;;;;18.55;10.55;;;;;;;;;;5062724;28;20104;-55
2021/12/21 04:50:46;;;;;;;13.98;7.80;;;;;;;;;;5065625;28;20224;-54
2021/12/21 04:53:13;;;;;;;15.93;8.98;;;;;;;;;;5064417;28;20022;-55
2021/12/21 04:55:40;;;;;;;18.15;9.38;;;;;;;;;;5064128;28;20100;-54
2021/12/21 04:58:08;;;;;;;15.45;8.88;;;;;;;;;;5062850;28;20651;-55
2021/12/21 05:00:35;;;;;;;15.30;8.68;;;;;;;;;;5064528;28;20495;-53
2021/12/21 05:03:02;;;;;;;16.42;9.43;;;;;;;;;;5064178;28;20106;-54
2021/12/21 05:05:29;;;;;;;16.30;9.43;;;;;;;;;;5064522;28;20028;-55
2021/12/21 05:08:42;;;;;;;17.08;9.23;;;;;;;;;;5061983;28;20209;-53
2021/12/21 05:10:47;;;;;;;18.17;9.98;;;;;;;;;;5058363;28;20797;-53
2021/12/21 05:13:14;;;;;;;16.02;9.32;;;;;;;;;;5063074;28;20024;-52
2021/12/21 05:15:41;;;;;;;20.85;10.93;;;;;;;;;;5064489;28;20031;-52
2021/12/21 05:18:08;;;;;;;25.92;15.35;;;;;;;;;;5062978;28;20035;-54
2021/12/21 05:20:34;;;;;;;24.00;14.77;;;;;;;;;;5064356;28;20103;-54
2021/12/21 05:23:01;;;;;;;22.38;12.77;;;;;;;;;;5064182;28;20028;-54
2021/12/21 05:25:28;;;;;;;21.42;12.82;;;;;;;;;;5062181;28;20031;-55
2021/12/21 05:27:55;;;;;;;16.38;10.65;;;;;;;;;;5064285;28;20503;-55
2021/12/21 05:30:22;;;;;;;17.90;10.27;;;;;;;;;;5062155;28;20025;-54
2021/12/21 05:32:49;;;;;;;17.92;10.65;;;;;;;;;;5064661;28;20025;-54
2021/12/21 05:35:15;;;;;;;16.27;9.98;;;;;;;;;;5063010;28;20017;-52
2021/12/21 05:37:42;;;;;;;15.85;8.95;;;;;;;;;;5064134;28;20024;-54
2021/12/21 05:40:13;;;;;;;19.48;10.05;;;;;;;;;;5064013;28;20056;-54
2021/12/21 05:42:41;;;;;;;17.40;9.88;;;;;;;;;;5064268;28;20028;-54
2021/12/21 05:45:08;;;;;;;16.20;9.13;;;;;;;;;;5062073;28;20094;-54
2021/12/21 05:47:34;;;;;;;15.13;8.98;;;;;;;;;;5067644;28;20085;-54
2021/12/21 05:50:00;;;;;;;15.63;8.68;;;;;;;;;;5067900;28;20495;-55
2021/12/21 05:52:26;;;;;;;14.50;9.02;;;;;;;;;;5067801;28;20024;-52
2021/12/21 05:54:53;;;;;;;16.67;9.30;;;;;;;;;;5067037;28;20031;-53
2021/12/21 05:57:19;;;;;;;14.48;8.68;;;;;;;;;;5068157;28;20036;-52
2021/12/21 05:59:45;;;;;;;15.43;9.07;;;;;;;;;;5067970;28;20024;-56
2021/12/21 06:02:12;;;;;;;17.05;10.38;;;;;;;;;;5067746;28;20423;-54
2021/12/21 06:04:38;;;;;;;16.52;9.55;;;;;;;;;;5066722;28;20036;-54
2021/12/21 06:07:05;;;;;;;16.88;10.07;;;;;;;;;;5067926;28;20044;-55
2021/12/21 06:09:32;;;;;;;16.25;9.80;;;;;;;;;;5067390;28;20483;-55
2021/12/21 06:28:01;;;;;;;16.70;10.32;;;;;;;;;;5047512;28;20074;-55
2021/12/21 06:30:28;;;;;;;17.23;10.38;;;;;;;;;;5046629;28;20025;-54
2021/12/21 06:32:54;;;;;;;17.50;10.80;;;;;;;;;;5048167;28;20033;-54
2021/12/21 06:35:20;;;;;;;16.17;10.18;;;;;;;;;;5067254;28;20028;-52
2021/12/21 06:37:46;;;;;;;18.23;10.13;;;;;;;;;;5067606;28;20020;-52
2021/12/21 06:40:12;;;;;;;15.68;9.43;;;;;;;;;;5067093;28;20047;-54
2021/12/21 06:42:40;;;;;;;16.95;10.15;;;;;;;;;;5065219;28;20063;-54
2021/12/21 06:45:13;;;;;;;17.17;9.80;;;;;;;;;;5068001;28;20033;-52
2021/12/21 06:53:09;;;;;;;18.33;10.30;;;;;;;;;;5067055;28;20043;-55
2021/12/21 06:55:35;;;;;;;16.65;10.13;;;;;;;;;;5067742;28;20569;-54
2021/12/21 06:58:01;;;;;;;17.00;10.15;;;;;;;;;;5067010;28;20016;-54
2021/12/21 07:00:27;;;;;;;17.80;11.05;;;;;;;;;;5068017;28;20109;-54
2021/12/21 07:02:53;;;;;;;17.83;10.63;;;;;;;;;;5068129;28;20020;-54
2021/12/21 07:05:20;;;;;;;19.55;11.65;;;;;;;;;;5065750;28;20037;-54
2021/12/21 07:07:46;;;;;;;21.90;12.65;;;;;;;;;;5065915;28;20104;-54
2021/12/21 07:10:20;;;;;;;20.60;11.50;;;;;;;;;;5068255;28;20483;-53
2021/12/21 07:18:14;;;;;;;23.58;13.32;;;;;;;;;;5067679;28;20094;-54
2021/12/21 07:20:40;;;;;;;22.48;13.10;;;;;;;;;;5068362;28;20037;-54
2021/12/21 07:23:06;;;;;;;23.73;13.68;;;;;;;;;;5068075;28;20514;-55
2021/12/21 07:25:32;;;;;;;24.98;13.35;;;;;;;;;;5068014;28;20107;-55
2021/12/21 07:27:59;;;;;;;24.45;13.63;;;;;;;;;;5066371;28;20111;-53
2021/12/21 07:30:25;;;;;;;22.00;12.30;;;;;;;;;;5067170;28;20945;-55
2021/12/21 07:32:51;;;;;;;21.73;12.95;;;;;;;;;;5067942;28;20017;-54
2021/12/21 07:35:18;;;;;;;24.88;13.75;;;;;;;;;;5068251;28;20759;-54
2021/12/21 07:37:44;;;;;;;25.38;14.13;;;;;;;;;;5066016;28;20036;-54
2021/12/21 07:40:10;;;;;;;24.33;13.43;;;;;;;;;;5067880;28;20033;-53
2021/12/21 07:42:36;;;;;;;24.85;13.68;;;;;;;;;;5065738;28;20040;-54
2021/12/21 07:45:02;;;;;;;22.25;13.68;;;;;;;;;;5064398;28;20755;-54
2021/12/21 07:47:28;;;;;;;24.27;13.30;;;;;;;;;;5067356;28;20035;-54
2021/12/21 07:49:55;;;;;;;25.20;13.88;;;;;;;;;;5067653;28;20039;-55
2021/12/21 07:52:21;;;;;;;21.92;13.02;;;;;;;;;;5067916;28;20025;-55
2021/12/21 07:54:47;;;;;;;23.38;13.40;;;;;;;;;;5066160;28;20035;-54
2021/12/21 07:57:13;;;;;;;21.92;12.90;;;;;;;;;;5068030;28;20556;-55
2021/12/21 07:59:40;;;;;;;22.85;12.90;;;;;;;;;;5077684;28;20469;-55
2021/12/21 08:02:06;;;;;;;22.05;13.18;;;;;;;;;;5064152;28;20028;-53
2021/12/21 08:04:34;;;;;;;19.98;11.75;;;;;;;;;;5065790;28;20488;-54
2021/12/21 08:07:07;;;;;;;25.67;14.65;;;;;;;;;;5049248;28;20045;-55
2021/12/21 08:09:39;;;;;;;24.58;14.32;;;;;;;;;;5065265;28;20068;-53
2021/12/21 08:12:14;;;;;;;26.17;13.82;;;;;;;;;;5066846;28;20024;-54
2021/12/21 08:14:41;;;;;;;22.45;13.23;;;;;;;;;;5047073;28;20017;-55
2021/12/21 08:17:07;;;;;;;25.70;14.48;;;;;;;;;;5047085;28;20484;-55
2021/12/21 08:19:33;;;;;;;28.48;16.33;;;;;;;;;;5051316;28;20577;-55
2021/12/21 08:21:59;;;;;;;26.27;15.38;;;;;;;;;;5066959;28;20519;-55
2021/12/21 08:24:25;;;;;;;25.75;13.45;;;;;;;;;;5064734;28;20830;-54
2021/12/21 08:26:51;;;;;;;23.55;14.30;;;;;;;;;;5066665;28;20478;-56
2021/12/21 08:29:17;;;;;;;23.65;14.07;;;;;;;;;;5066102;28;20155;-54
2021/12/21 08:31:44;;;;;;;21.80;13.05;;;;;;;;;;5065951;28;20544;-55
2021/12/21 08:34:11;;;;;;;21.90;13.35;;;;;;;;;;5066708;28;20029;-54
2021/12/21 08:36:37;;;;;;;23.48;13.07;;;;;;;;;;5066566;28;20498;-54
2021/12/21 08:39:06;;;;;;;21.30;12.13;;;;;;;;;;5065348;28;20040;-52
2021/12/21 08:41:38;;;;;;;22.27;13.32;;;;;;;;;;5046263;28;20033;-55
2021/12/21 08:44:05;;;;;;;20.55;12.05;;;;;;;;;;5046584;28;20029;-55
2021/12/21 08:46:31;;;;;;;19.27;11.90;;;;;;;;;;5045916;28;20070;-54
2021/12/21 08:48:58;;;;;;;21.13;12.25;;;;;;;;;;5045067;28;20033;-55
2021/12/21 08:51:24;;;;;;;19.90;11.93;;;;;;;;;;5062971;28;20066;-56
2021/12/21 08:53:50;;;;;;;20.70;11.32;;;;;;;;;;5065552;28;20036;-55
2021/12/21 08:56:17;;;;;;;19.15;11.18;;;;;;;;;;5064689;28;20032;-55
2021/12/21 08:58:43;;;;;;;21.05;11.60;;;;;;;;;;5065007;28;20505;-53
2021/12/21 09:01:09;;;;;;;18.10;10.30;;;;;;;;;;5061956;28;20113;-55
2021/12/21 09:03:35;;;;;;;19.00;10.27;;;;;;;;;;5063481;28;20131;-54
2021/12/21 09:06:01;;;;;;;17.90;10.50;;;;;;;;;;5064824;28;20025;-54
2021/12/21 09:08:28;;;;;;;19.60;11.70;;;;;;;;;;5063340;28;20020;-55
2021/12/21 09:11:02;;;;;;;17.33;10.60;;;;;;;;;;5064022;28;20021;-54
2021/12/21 09:13:28;;;;;;;17.73;10.03;;;;;;;;;;5063577;28;20060;-55
2021/12/21 09:15:54;;;;;;;22.15;12.25;;;;;;;;;;5064624;28;20068;-55
2021/12/21 09:18:21;;;;;;;20.52;11.82;;;;;;;;;;5064721;28;20031;-53
2021/12/21 09:20:48;;;;;;;19.05;11.05;;;;;;;;;;5062732;28;20035;-55
2021/12/21 09:23:15;;;;;;;19.13;10.88;;;;;;;;;;5063911;28;20100;-56
2021/12/21 09:25:41;;;;;;;19.70;10.27;;;;;;;;;;5064427;28;20028;-54
2021/12/21 09:28:07;;;;;;;17.88;10.30;;;;;;;;;;5046206;28;20068;-55
2021/12/21 09:30:33;;;;;;;20.50;11.10;;;;;;;;;;5059094;28;20052;-55
2021/12/21 09:33:00;;;;;;;21.02;12.10;;;;;;;;;;5059851;28;20028;-55
2021/12/21 09:35:27;;;;;;;19.50;10.55;;;;;;;;;;5064820;28;20021;-55
2021/12/21 09:37:54;;;;;;;20.17;11.60;;;;;;;;;;5064002;28;20395;-54
2021/12/21 09:40:21;;;;;;;20.35;11.95;;;;;;;;;;5065648;28;20033;-55
2021/12/21 09:42:48;;;;;;;20.75;12.50;;;;;;;;;;5064853;28;20044;-55
2021/12/21 09:45:14;;;;;;;20.77;12.60;;;;;;;;;;5062962;28;20021;-55
2021/12/21 09:47:40;;;;;;;19.00;11.98;;;;;;;;;;5062527;28;20549;-55
2021/12/21 09:50:09;;;;;;;18.73;11.10;;;;;;;;;;5068399;28;20025;-55
2021/12/21 09:52:36;;;;;;;22.52;12.23;;;;;;;;;;5064099;28;20099;-55
2021/12/21 09:55:04;;;;;;;18.75;11.27;;;;;;;;;;5079080;28;20591;-54
2021/12/21 09:57:30;;;;;;;17.45;10.40;;;;;;;;;;5065282;28;20025;-55
2021/12/21 09:59:57;;;;;;;20.33;11.95;;;;;;;;;;5065000;28;20032;-55
2021/12/21 10:02:26;;;;;;;17.83;10.73;;;;;;;;;;5065329;28;20028;-55
2021/12/21 10:04:56;;;;;;;18.48;10.55;;;;;;;;;;5065782;28;20024;-55
2021/12/21 10:07:22;;;;;;;18.80;10.80;;;;;;;;;;5065141;28;20033;-55
2021/12/21 10:09:50;;;;;;;17.83;10.60;;;;;;;;;;5071716;28;20016;-56
2021/12/21 10:12:34;;;;;;;17.33;9.63;;;;;;;;;;5086186;28;20024;-55
2021/12/21 10:15:00;;;;;;;;;;;;;;;;;;5060482;28;20107;-56
2021/12/21 10:17:26;;;;;;;18.17;10.45;;;;;;;;;;5063256;28;20019;-55
2021/12/21 10:19:52;;;;;;;20.80;12.13;;;;;;;;;;5063373;28;20484;-55
2021/12/21 10:22:18;;;;;;;17.52;10.65;;;;;;;;;;5063989;28;20028;-54
2021/12/21 10:24:49;;;;;;;20.02;10.38;;;;;;;;;;5063822;28;20416;-55
2021/12/21 10:27:16;;;;;;;17.73;10.88;;;;;;;;;;5052856;28;20044;-56
2021/12/21 10:29:43;;;;;;;18.63;10.63;;;;;;;;;;5063450;28;20389;-56
2021/12/21 10:32:16;;;;;;;17.50;10.23;;;;;;;;;;5063985;28;20090;-56
2021/12/21 10:34:50;;;;;;;15.68;9.65;;;;;;;;;;5051125;28;20398;-55
2021/12/21 10:37:25;;;;;;;18.20;10.27;;;;;;;;;;5068177;28;20035;-55
2021/12/21 10:40:01;;;;;;;16.67;9.63;;;;;;;;;;5069042;28;20044;-57
2021/12/21 10:42:27;;;;;;;19.77;11.07;;;;;;;;;;5068617;28;20024;-56
2021/12/21 10:45:01;;;;;;;18.10;10.80;;;;;;;;;;5057484;28;20029;-58
2021/12/21 10:47:27;;;;;;;14.65;9.48;;;;;;;;;;5065495;28;20033;-56
2021/12/21 10:49:53;;;;;;;15.80;8.93;;;;;;;;;;5067819;28;20506;-56
2021/12/21 10:52:21;;;;;;;16.98;9.73;;;;;;;;;;5067492;28;20563;-57
2021/12/21 10:54:48;;;;;;;15.93;9.90;;;;;;;;;;5069170;28;20054;-57
2021/12/21 10:57:17;;;;;;;19.08;11.75;;;;;;;;;;5066684;28;20028;-56
2021/12/21 10:59:46;;;;;;;23.77;14.35;;;;;;;;;;5069087;28;20063;-56
2021/12/21 11:02:14;;;;;;;27.55;15.48;;;;;;;;;;5066863;28;20040;-56
2021/12/21 11:04:42;;;;;;;26.83;15.75;;;;;;;;;;5066496;28;20044;-56
2021/12/21 11:10:09;;;;;;;19.70;11.93;;;;;;;;;;5065472;28;20102;-56
2021/12/21 11:12:46;;;;;;;19.50;11.45;;;;;;;;;;5075570;28;20437;-56
2021/12/21 11:15:16;;;;;;;19.90;11.40;;;;;;;;;;5088705;28;20116;-55
2021/12/21 11:17:42;;;;;;;17.63;10.43;;;;;;;;;;5069735;28;20032;-56
2021/12/21 11:20:09;;;;;;;17.58;10.88;;;;;;;;;;5068669;28;20109;-56
2021/12/21 11:22:38;;;;;;;15.45;9.32;;;;;;;;;;5068776;28;20087;-56
2021/12/21 11:25:05;;;;;;;15.07;9.80;;;;;;;;;;5067952;28;20036;-56
2021/12/21 11:27:33;;;;;;;14.38;9.23;;;;;;;;;;5066990;28;20028;-56
2021/12/21 11:30:03;;;;;;;18.17;11.55;;;;;;;;;;5066968;28;20060;-56
2021/12/21 11:32:31;;;;;;;21.42;13.00;;;;;;;;;;5068921;28;20063;-56
2021/12/21 11:37:20;;;;;;;21.73;11.98;;;;;;;;;;5067131;28;20037;-56
2021/12/21 11:37:46;;;;;;;16.75;9.95;;;;;;;;;;5065784;28;20036;-56
2021/12/21 11:40:14;;;;;;;19.42;11.38;;;;;;;;;;5066516;28;20075;-56
2021/12/21 11:42:46;;;;;;;17.42;10.68;;;;;;;;;;5077479;28;20077;-55
2021/12/21 11:45:29;;;;;;;17.02;10.93;;;;;;;;;;5066343;28;20060;-56
2021/12/21 11:48:04;;;;;;;17.63;11.10;;;;;;;;;;5057115;28;20104;-56
2021/12/21 11:50:30;;;;;;;19.42;11.60;;;;;;;;;;5088740;28;20035;-56
2021/12/21 11:53:02;;;;;;;17.23;10.43;;;;;;;;;;5081494;28;20032;-56
2021/12/21 11:55:28;;;;;;;18.45;11.05;;;;;;;;;;5088888;28;20115;-56
2021/12/21 11:57:56;;;;;;;17.75;11.23;;;;;;;;;;5088112;28;20020;-56
2021/12/21 12:00:25;;;;;;;17.33;10.18;;;;;;;;;;5076878;28;20085;-57
2021/12/21 12:02:52;;;;;;;17.02;10.07;;;;;;;;;;5067858;28;20059;-57
2021/12/21 12:05:18;;;;;;;13.93;8.98;;;;;;;;;;5065032;28;20055;-57
2021/12/21 12:07:44;;;;;;;16.10;9.15;;;;;;;;;;5056188;28;20525;-56
2021/12/21 12:10:14;;;;;;;14.20;9.43;;;;;;;;;;5046540;28;20450;-57
2021/12/21 12:12:41;;;;;;;14.98;9.10;;;;;;;;;;5057658;28;20021;-55
2021/12/21 12:15:08;;;;;;;17.08;10.20;;;;;;;;;;5065880;28;20056;-57
2021/12/21 12:17:44;;;;;;;15.07;9.55;;;;;;;;;;5066034;28;20040;-57
2021/12/21 12:20:10;;;;;;;17.38;10.10;;;;;;;;;;5074994;28;20032;-56
2021/12/21 12:22:37;;;;;;;15.00;9.43;;;;;;;;;;5065369;28;20036;-56
2021/12/21 12:25:04;;;;;;;13.90;8.32;;;;;;;;;;5067585;28;20029;-57
2021/12/21 12:27:31;;;;;;;13.38;8.35;;;;;;;;;;5065879;28;20115;-56
2021/12/21 12:29:57;;;;;;;13.32;8.55;;;;;;;;;;5072860;28;20442;-56
2021/12/21 12:32:40;;;;;;;14.60;8.40;;;;;;;;;;5071592;28;20047;-56
2021/12/21 12:35:10;;;;;;;15.13;9.18;;;;;;;;;;5065314;28;20040;-56
2021/12/21 12:37:53;;;;;;;13.13;8.63;;;;;;;;;;5060399;28;20055;-57
2021/12/21 12:40:20;;;;;;;15.88;10.00;;;;;;;;;;5065325;28;20098;-56
2021/12/21 12:43:13;;;;;;;14.32;9.10;;;;;;;;;;5045836;28;20534;-57
2021/12/21 12:45:41;;;;;;;15.77;9.82;;;;;;;;;;5059997;28;20534;-56
2021/12/21 12:48:17;;;;;;;16.42;10.32;;;;;;;;;;5070166;28;20032;-57
2021/12/21 12:50:45;;;;;;;16.77;10.75;;;;;;;;;;5066789;28;20074;-57
2021/12/21 12:53:11;;;;;;;16.33;10.52;;;;;;;;;;5077692;28;20153;-56
2021/12/21 12:55:40;;;;;;;16.73;10.70;;;;;;;;;;5071815;28;20090;-57
2021/12/21 12:58:14;;;;;;;15.00;9.60;;;;;;;;;;5072041;28;20029;-57
2021/12/21 13:00:42;;;;;;;14.80;9.40;;;;;;;;;;5062924;28;20024;-57
2021/12/21 13:03:10;;;;;;;12.82;8.70;;;;;;;;;;5062741;28;20063;-57
2021/12/21 13:05:40;;;;;;;13.43;8.32;;;;;;;;;;5067069;28;20115;-57
2021/12/21 13:08:14;;;;;;;12.93;8.45;;;;;;;;;;5066241;28;20021;-57
2021/12/21 13:10:40;;;;;;;;;;;;;;;;;;5049310;28;20717;-58
2021/12/21 13:13:07;;;;;;;15.35;9.45;;;;;;;;;;5067849;28;20012;-57
2021/12/21 13:15:44;;;;;;;11.75;7.85;;;;;;;;;;5065549;28;20543;-57
2021/12/21 13:18:13;;;;;;;14.88;8.75;;;;;;;;;;5086795;28;20479;-57
2021/12/21 13:20:40;;;;;;;13.18;8.23;;;;;;;;;;5077865;28;20380;-57
2021/12/21 13:23:14;;;;;;;11.25;7.63;;;;;;;;;;5066385;28;20033;-57
2021/12/21 13:25:51;;;;;;;13.70;7.93;;;;;;;;;;5066317;28;20531;-57
2021/12/21 13:28:17;;;;;;;11.55;8.07;;;;;;;;;;5066016;28;20044;-57
2021/12/21 13:30:48;;;;;;;13.40;8.60;;;;;;;;;;5064940;28;20419;-57
2021/12/21 13:33:23;;;;;;;14.82;9.40;;;;;;;;;;5078046;28;20376;-57
2021/12/21 13:35:53;;;;;;;13.63;8.60;;;;;;;;;;5086847;28;20065;-57
2021/12/21 13:38:20;;;;;;;14.70;9.40;;;;;;;;;;5086253;28;20028;-57
2021/12/21 13:40:58;;;;;;;13.13;8.30;;;;;;;;;;5078659;28;20388;-57
2021/12/21 13:43:24;;;;;;;13.38;8.48;;;;;;;;;;5066101;28;20873;-57
2021/12/21 13:45:56;;;;;;;13.68;8.45;;;;;;;;;;5066455;28;20056;-57
2021/12/21 13:48:22;;;;;;;15.50;10.05;;;;;;;;;;5066262;28;20086;-57
2021/12/21 13:50:48;;;;;;;14.95;9.35;;;;;;;;;;5064912;28;20090;-57
2021/12/21 13:53:18;;;;;;;17.00;10.80;;;;;;;;;;5065234;28;20458;-57
2021/12/21 13:55:44;;;;;;;16.73;10.43;;;;;;;;;;5065350;28;20100;-57
2021/12/21 13:58:12;;;;;;;18.02;10.68;;;;;;;;;;5076857;28;20051;-57
2021/12/21 14:00:43;;;;;;;18.25;10.93;;;;;;;;;;5074592;28;20051;-57
2021/12/21 14:03:20;;;;;;;20.27;11.68;;;;;;;;;;5065238;28;20368;-57
2021/12/21 14:05:54;;;;;;;17.70;10.98;;;;;;;;;;5065114;28;20028;-57
2021/12/21 14:08:20;;;;;;;18.45;11.20;;;;;;;;;;5068622;28;20051;-57
2021/12/21 14:10:53;;;;;;;16.23;10.60;;;;;;;;;;5071655;28;20028;-56
2021/12/21 14:13:27;;;;;;;16.53;10.33;;;;;;;;;;5068300;28;20017;-57
2021/12/21 14:15:53;;;;;;;20.75;12.27;;;;;;;;;;5069030;28;20103;-57
2021/12/21 14:18:20;;;;;;;18.88;11.70;;;;;;;;;;5068582;28;20407;-57
2021/12/21 14:20:59;;;;;;;20.63;12.73;;;;;;;;;;5068751;28;20052;-57
2021/12/21 14:23:27;;;;;;;20.35;12.70;;;;;;;;;;5067808;28;20033;-57
2021/12/21 14:25:53;;;;;;;18.25;11.60;;;;;;;;;;5068131;28;20033;-56
2021/12/21 14:28:20;;;;;;;19.88;12.70;;;;;;;;;;5067754;28;20031;-57
2021/12/21 14:30:47;;;;;;;19.10;12.02;;;;;;;;;;5067615;28;20028;-56
2021/12/21 14:33:48;;;;;;;21.02;12.82;;;;;;;;;;5067001;28;20119;-56
2021/12/21 14:36:05;;;;;;;22.17;13.05;;;;;;;;;;5067013;28;20111;-57
2021/12/21 14:38:31;;;;;;;17.85;11.40;;;;;;;;;;5067714;28;20037;-56
2021/12/21 14:40:58;;;;;;;18.35;11.55;;;;;;;;;;5067848;28;20106;-56
2021/12/21 14:43:27;;;;;;;18.15;11.88;;;;;;;;;;5068261;28;20028;-57
2021/12/21 14:45:53;;;;;;;16.83;11.13;;;;;;;;;;5067946;28;20437;-56
2021/12/21 14:48:20;;;;;;;16.60;11.18;;;;;;;;;;5066696;28;20027;-57
2021/12/21 14:50:49;;;;;;;17.65;10.75;;;;;;;;;;5063432;28;21334;-57
2021/12/21 14:53:17;;;;;;;18.55;11.35;;;;;;;;;;5063010;28;20021;-57
2021/12/21 14:55:43;;;;;;;18.17;11.43;;;;;;;;;;5065800;28;20020;-57
2021/12/21 14:58:09;;;;;;;19.45;12.68;;;;;;;;;;5067206;28;20033;-57
2021/12/21 15:00:38;;;;;;;18.60;12.02;;;;;;;;;;5066601;28;20021;-57
2021/12/21 15:03:07;;;;;;;18.77;11.48;;;;;;;;;;5074584;28;20063;-57
2021/12/21 15:05:35;;;;;;;21.08;12.68;;;;;;;;;;5068581;28;20036;-57
2021/12/21 15:08:03;;;;;;;21.67;12.43;;;;;;;;;;5072236;28;20030;-57
2021/12/21 15:10:32;;;;;;;21.40;12.90;;;;;;;;;;5067051;28;20064;-57
2021/12/21 15:12:59;;;;;;;25.13;13.75;;;;;;;;;;5068670;28;20035;-58
2021/12/21 15:15:25;;;;;;;31.65;15.68;;;;;;;;;;5068274;28;20483;-57
2021/12/21 15:17:53;;;;;;;34.03;16.85;;;;;;;;;;5066536;28;20503;-57
2021/12/21 15:20:20;;;;;;;40.80;19.38;;;;;;;;;;5068499;28;20580;-57
2021/12/21 15:22:47;;;;;;;38.08;19.33;;;;;;;;;;5065980;28;20106;-57
2021/12/21 15:25:15;;;;;;;34.72;18.73;;;;;;;;;;5067463;28;20037;-57
2021/12/21 15:27:41;;;;;;;32.25;17.05;;;;;;;;;;5051957;28;20033;-57
2021/12/21 15:30:09;;;;;;;33.92;18.05;;;;;;;;;;5060826;28;20261;-57
2021/12/21 15:32:35;;;;;;;31.00;15.65;;;;;;;;;;5067486;28;20869;-57
2021/12/21 15:35:02;;;;;;;27.88;15.20;;;;;;;;;;5066682;28;20111;-57
2021/12/21 15:37:28;;;;;;;26.48;15.07;;;;;;;;;;5066363;28;20522;-57
2021/12/21 15:39:55;;;;;;;29.83;15.90;;;;;;;;;;5066850;28;20523;-57